sensor_id;sensor_type;location;lat;lon;timestamp;pressure;altitude;pressure_sealevel;temperature;humidity
54389;BME280;40975;50.390;8.640;2023-01-10T00:00:29;98633.91;;;3.24;100.00
54389;BME280;40975;50.390;8.640;2023-01-10T00:02:59;98634.84;;;3.23;100.00
54389;BME280;40975;50.390;8.640;2023-01-10T00:05:24;98643.75;;;3.20;100.00
54389;BME280;40975;50.390;8.640;2023-01-10T00:07:50;98652.59;;;3.19;100.00
54389;BME280;40975;50.390;8.640;2023-01-10T00:10:15;98647.03;;;3.24;100.00
54389;BME280;40975;50.390;8.640;2023-01-10T00:12:40;98650.13;;;3.29;100.00
54389;BME280;40975;50.390;8.640;2023-01-10T00:15:24;98660.63;;;3.29;100.00
54389;BME280;40975;50.390;8.640;2023-01-10T00:17:50;98653.69;;;3.28;100.00
54389;BME280;40975;50.390;8.640;2023-01-10T00:20:15;98660.34;;;3.21;100.00
54389;BME280;40975;50.390;8.640;2023-01-10T00:22:41;98673.94;;;3.26;100.00
54389;BME280;40975;50.390;8.640;2023-01-10T00:25:06;98675.13;;;3.22;100.00
54389;BME280;40975;50.390;8.640;2023-01-10T00:27:32;98676.25;;;3.31;100.00
54389;BME280;40975;50.390;8.640;2023-01-10T00:29:57;98682.00;;;3.36;100.00
54389;BME280;40975;50.390;8.640;2023-01-10T00:32:25;98686.47;;;3.47;100.00
54389;BME280;40975;50.390;8.640;2023-01-10T00:34:51;98691.50;;;3.50;100.00
54389;BME280;40975;50.390;8.640;2023-01-10T00:37:16;98700.31;;;3.49;100.00
54389;BME280;40975;50.390;8.640;2023-01-10T00:39:41;98707.56;;;3.45;100.00
54389;BME280;40975;50.390;8.640;2023-01-10T00:42:09;98717.22;;;3.45;100.00
54389;BME280;40975;50.390;8.640;2023-01-10T00:44:53;98719.63;;;3.48;100.00
54389;BME280;40975;50.390;8.640;2023-01-10T00:47:18;98720.34;;;3.50;100.00
54389;BME280;40975;50.390;8.640;2023-01-10T00:49:44;98733.13;;;3.54;100.00
54389;BME280;40975;50.390;8.640;2023-01-10T00:52:09;98738.16;;;3.57;100.00
54389;BME280;40975;50.390;8.640;2023-01-10T00:54:34;98751.78;;;3.63;100.00
54389;BME280;40975;50.390;8.640;2023-01-10T00:57:00;98761.22;;;3.65;100.00
54389;BME280;40975;50.390;8.640;2023-01-10T00:59:25;98755.88;;;3.67;100.00
54389;BME280;40975;50.390;8.640;2023-01-10T01:01:51;98762.56;;;3.71;100.00
54389;BME280;40975;50.390;8.640;2023-01-10T01:04:16;98772.50;;;3.79;100.00
54389;BME280;40975;50.390;8.640;2023-01-10T01:06:43;98781.59;;;3.86;100.00
54389;BME280;40975;50.390;8.640;2023-01-10T01:09:08;98789.13;;;3.91;100.00
54389;BME280;40975;50.390;8.640;2023-01-10T01:11:34;98801.44;;;3.90;100.00
54389;BME280;40975;50.390;8.640;2023-01-10T01:13:59;98794.50;;;3.89;100.00
54389;BME280;40975;50.390;8.640;2023-01-10T01:16:24;98804.34;;;3.98;100.00
54389;BME280;40975;50.390;8.640;2023-01-10T01:18:50;98810.53;;;3.97;100.00
54389;BME280;40975;50.390;8.640;2023-01-10T01:21:15;98806.84;;;4.00;100.00
54389;BME280;40975;50.390;8.640;2023-01-10T01:23:40;98820.09;;;3.98;100.00
54389;BME280;40975;50.390;8.640;2023-01-10T01:26:06;98820.31;;;3.95;100.00
54389;BME280;40975;50.390;8.640;2023-01-10T01:28:31;98824.53;;;3.98;100.00
54389;BME280;40975;50.390;8.640;2023-01-10T01:30:57;98830.94;;;3.94;100.00
54389;BME280;40975;50.390;8.640;2023-01-10T01:33:22;98848.03;;;3.99;100.00
54389;BME280;40975;50.390;8.640;2023-01-10T01:35:48;98843.59;;;4.00;100.00
54389;BME280;40975;50.390;8.640;2023-01-10T01:38:14;98838.03;;;4.04;100.00
54389;BME280;40975;50.390;8.640;2023-01-10T01:40:40;98852.47;;;3.99;100.00
54389;BME280;40975;50.390;8.640;2023-01-10T01:43:26;98858.06;;;3.94;100.00
54389;BME280;40975;50.390;8.640;2023-01-10T01:45:53;98853.09;;;3.89;100.00
54389;BME280;40975;50.390;8.640;2023-01-10T01:48:35;98868.47;;;3.83;100.00
54389;BME280;40975;50.390;8.640;2023-01-10T01:51:22;98878.38;;;3.79;100.00
54389;BME280;40975;50.390;8.640;2023-01-10T01:53:56;98881.19;;;3.76;100.00
54389;BME280;40975;50.390;8.640;2023-01-10T01:56:34;98883.72;;;3.78;100.00
54389;BME280;40975;50.390;8.640;2023-01-10T01:59:06;98897.28;;;3.71;100.00
54389;BME280;40975;50.390;8.640;2023-01-10T02:01:33;98899.16;;;3.69;100.00
54389;BME280;40975;50.390;8.640;2023-01-10T02:04:12;98909.66;;;3.69;100.00
54389;BME280;40975;50.390;8.640;2023-01-10T02:06:39;98918.38;;;3.70;100.00
54389;BME280;40975;50.390;8.640;2023-01-10T02:09:18;98913.97;;;3.70;100.00
54389;BME280;40975;50.390;8.640;2023-01-10T02:11:46;98912.28;;;3.69;100.00
54389;BME280;40975;50.390;8.640;2023-01-10T02:14:13;98913.34;;;3.67;100.00
54389;BME280;40975;50.390;8.640;2023-01-10T02:16:38;98914.28;;;3.66;100.00
54389;BME280;40975;50.390;8.640;2023-01-10T02:19:10;98920.59;;;3.63;100.00
54389;BME280;40975;50.390;8.640;2023-01-10T02:22:02;98925.94;;;3.62;100.00
54389;BME280;40975;50.390;8.640;2023-01-10T02:28:20;98927.84;;;3.72;100.00
54389;BME280;40975;50.390;8.640;2023-01-10T02:30:59;98933.69;;;3.76;100.00
54389;BME280;40975;50.390;8.640;2023-01-10T02:33:37;98938.41;;;3.84;100.00
54389;BME280;40975;50.390;8.640;2023-01-10T02:38:50;98943.66;;;3.84;100.00
54389;BME280;40975;50.390;8.640;2023-01-10T02:41:43;98942.81;;;3.83;100.00
54389;BME280;40975;50.390;8.640;2023-01-10T02:44:18;98956.34;;;3.90;100.00
54389;BME280;40975;50.390;8.640;2023-01-10T02:46:47;98967.81;;;3.89;100.00
54389;BME280;40975;50.390;8.640;2023-01-10T02:49:13;98966.53;;;3.95;100.00
54389;BME280;40975;50.390;8.640;2023-01-10T02:51:38;98972.59;;;3.95;100.00
54389;BME280;40975;50.390;8.640;2023-01-10T02:54:11;98964.22;;;3.90;100.00
54389;BME280;40975;50.390;8.640;2023-01-10T02:59:40;98976.81;;;3.85;100.00
54389;BME280;40975;50.390;8.640;2023-01-10T03:04:56;98994.16;;;3.74;100.00
54389;BME280;40975;50.390;8.640;2023-01-10T03:12:42;99003.84;;;3.74;100.00
54389;BME280;40975;50.390;8.640;2023-01-10T03:15:12;98999.75;;;3.83;100.00
54389;BME280;40975;50.390;8.640;2023-01-10T03:17:41;99005.81;;;3.83;100.00
54389;BME280;40975;50.390;8.640;2023-01-10T03:20:08;99003.09;;;3.85;100.00
54389;BME280;40975;50.390;8.640;2023-01-10T03:22:37;99003.97;;;3.72;100.00
54389;BME280;40975;50.390;8.640;2023-01-10T03:25:06;99016.53;;;3.67;100.00
54389;BME280;40975;50.390;8.640;2023-01-10T03:27:52;99012.03;;;3.56;100.00
54389;BME280;40975;50.390;8.640;2023-01-10T03:30:54;99022.63;;;3.55;100.00
54389;BME280;40975;50.390;8.640;2023-01-10T03:33:27;99036.28;;;3.47;100.00
54389;BME280;40975;50.390;8.640;2023-01-10T03:36:07;99025.78;;;3.34;100.00
54389;BME280;40975;50.390;8.640;2023-01-10T03:38:50;99042.53;;;3.32;100.00
54389;BME280;40975;50.390;8.640;2023-01-10T03:44:18;99056.38;;;3.21;100.00
54389;BME280;40975;50.390;8.640;2023-01-10T03:49:30;99060.34;;;3.14;100.00
54389;BME280;40975;50.390;8.640;2023-01-10T03:51:57;99065.03;;;3.08;100.00
54389;BME280;40975;50.390;8.640;2023-01-10T03:54:23;99072.69;;;2.99;100.00
54389;BME280;40975;50.390;8.640;2023-01-10T03:56:50;99081.56;;;2.96;100.00
54389;BME280;40975;50.390;8.640;2023-01-10T03:59:21;99085.03;;;2.97;100.00
54389;BME280;40975;50.390;8.640;2023-01-10T04:01:48;99084.75;;;3.01;100.00
54389;BME280;40975;50.390;8.640;2023-01-10T04:04:14;99090.81;;;3.02;100.00
54389;BME280;40975;50.390;8.640;2023-01-10T04:06:39;99105.31;;;3.07;100.00
54389;BME280;40975;50.390;8.640;2023-01-10T04:09:05;99107.75;;;3.10;100.00
54389;BME280;40975;50.390;8.640;2023-01-10T04:11:31;99118.25;;;3.10;100.00
54389;BME280;40975;50.390;8.640;2023-01-10T04:13:56;99127.88;;;3.10;100.00
54389;BME280;40975;50.390;8.640;2023-01-10T04:16:22;99130.31;;;3.13;100.00
54389;BME280;40975;50.390;8.640;2023-01-10T04:18:47;99140.97;;;3.10;100.00
54389;BME280;40975;50.390;8.640;2023-01-10T04:21:12;99139.09;;;3.12;100.00
54389;BME280;40975;50.390;8.640;2023-01-10T04:23:38;99141.53;;;3.15;100.00
54389;BME280;40975;50.390;8.640;2023-01-10T04:26:03;99142.47;;;3.14;100.00
54389;BME280;40975;50.390;8.640;2023-01-10T04:28:29;99148.06;;;3.22;100.00
54389;BME280;40975;50.390;8.640;2023-01-10T04:30:54;99147.13;;;3.23;100.00
54389;BME280;40975;50.390;8.640;2023-01-10T04:33:19;99151.25;;;3.28;100.00
54389;BME280;40975;50.390;8.640;2023-01-10T04:35:49;99160.88;;;3.27;100.00
54389;BME280;40975;50.390;8.640;2023-01-10T04:38:15;99155.63;;;3.27;100.00
54389;BME280;40975;50.390;8.640;2023-01-10T04:40:41;99155.44;;;3.30;100.00
54389;BME280;40975;50.390;8.640;2023-01-10T04:43:07;99154.59;;;3.30;100.00
54389;BME280;40975;50.390;8.640;2023-01-10T04:45:33;99153.56;;;3.32;100.00
54389;BME280;40975;50.390;8.640;2023-01-10T04:47:58;99162.09;;;3.36;100.00
54389;BME280;40975;50.390;8.640;2023-01-10T04:50:24;99168.91;;;3.38;100.00
54389;BME280;40975;50.390;8.640;2023-01-10T04:52:50;99170.06;;;3.34;100.00
54389;BME280;40975;50.390;8.640;2023-01-10T04:55:15;99172.13;;;3.29;100.00
54389;BME280;40975;50.390;8.640;2023-01-10T04:57:40;99165.00;;;3.31;100.00
54389;BME280;40975;50.390;8.640;2023-01-10T05:00:07;99172.69;;;3.34;100.00
54389;BME280;40975;50.390;8.640;2023-01-10T05:02:32;99179.81;;;3.32;100.00
54389;BME280;40975;50.390;8.640;2023-01-10T05:04:58;99195.72;;;3.29;100.00
54389;BME280;40975;50.390;8.640;2023-01-10T05:07:23;99191.19;;;3.18;100.00
54389;BME280;40975;50.390;8.640;2023-01-10T05:09:48;99195.22;;;3.09;100.00
54389;BME280;40975;50.390;8.640;2023-01-10T05:12:14;99198.97;;;3.05;100.00
54389;BME280;40975;50.390;8.640;2023-01-10T05:14:39;99197.78;;;2.97;100.00
54389;BME280;40975;50.390;8.640;2023-01-10T05:17:04;99211.53;;;3.00;100.00
54389;BME280;40975;50.390;8.640;2023-01-10T05:19:30;99223.53;;;3.04;100.00
54389;BME280;40975;50.390;8.640;2023-01-10T05:21:55;99224.25;;;3.06;100.00
54389;BME280;40975;50.390;8.640;2023-01-10T05:24:21;99232.28;;;3.18;100.00
54389;BME280;40975;50.390;8.640;2023-01-10T05:26:46;99223.09;;;3.25;100.00
54389;BME280;40975;50.390;8.640;2023-01-10T05:29:11;99230.66;;;3.30;100.00
54389;BME280;40975;50.390;8.640;2023-01-10T05:31:39;99232.56;;;3.55;100.00
54389;BME280;40975;50.390;8.640;2023-01-10T05:34:04;99239.06;;;3.49;100.00
54389;BME280;40975;50.390;8.640;2023-01-10T05:36:29;99236.53;;;3.48;100.00
54389;BME280;40975;50.390;8.640;2023-01-10T05:38:55;99238.22;;;3.49;100.00
54389;BME280;40975;50.390;8.640;2023-01-10T05:41:20;99241.69;;;3.49;100.00
54389;BME280;40975;50.390;8.640;2023-01-10T05:43:46;99255.47;;;3.53;100.00
54389;BME280;40975;50.390;8.640;2023-01-10T05:46:11;99249.28;;;3.54;100.00
54389;BME280;40975;50.390;8.640;2023-01-10T05:48:37;99247.59;;;3.53;100.00
54389;BME280;40975;50.390;8.640;2023-01-10T05:51:02;99248.13;;;3.58;100.00
54389;BME280;40975;50.390;8.640;2023-01-10T05:53:28;99250.75;;;3.58;100.00
54389;BME280;40975;50.390;8.640;2023-01-10T05:56:00;99261.81;;;3.63;100.00
54389;BME280;40975;50.390;8.640;2023-01-10T05:58:26;99255.69;;;3.63;100.00
54389;BME280;40975;50.390;8.640;2023-01-10T06:00:53;99260.00;;;3.64;100.00
54389;BME280;40975;50.390;8.640;2023-01-10T06:03:19;99245.50;;;3.58;100.00
54389;BME280;40975;50.390;8.640;2023-01-10T06:05:44;99269.16;;;3.71;100.00
54389;BME280;40975;50.390;8.640;2023-01-10T06:08:10;99272.66;;;3.71;100.00
54389;BME280;40975;50.390;8.640;2023-01-10T06:10:35;99283.03;;;3.73;100.00
54389;BME280;40975;50.390;8.640;2023-01-10T06:13:00;99284.72;;;3.74;100.00
54389;BME280;40975;50.390;8.640;2023-01-10T06:15:26;99298.78;;;3.73;100.00
54389;BME280;40975;50.390;8.640;2023-01-10T06:17:52;99303.94;;;3.74;100.00
54389;BME280;40975;50.390;8.640;2023-01-10T06:20:17;99309.75;;;3.80;100.00
54389;BME280;40975;50.390;8.640;2023-01-10T06:22:43;99325.31;;;3.83;100.00
54389;BME280;40975;50.390;8.640;2023-01-10T06:25:09;99323.06;;;3.77;100.00
54389;BME280;40975;50.390;8.640;2023-01-10T06:27:37;99333.81;;;3.86;100.00
54389;BME280;40975;50.390;8.640;2023-01-10T06:30:03;99328.47;;;3.88;100.00
54389;BME280;40975;50.390;8.640;2023-01-10T06:32:28;99330.03;;;3.91;100.00
54389;BME280;40975;50.390;8.640;2023-01-10T06:34:54;99321.53;;;3.87;100.00
54389;BME280;40975;50.390;8.640;2023-01-10T06:37:19;99333.41;;;3.93;100.00
54389;BME280;40975;50.390;8.640;2023-01-10T06:39:44;99338.13;;;3.87;100.00
54389;BME280;40975;50.390;8.640;2023-01-10T06:42:11;99339.72;;;3.90;100.00
54389;BME280;40975;50.390;8.640;2023-01-10T06:44:36;99333.91;;;3.85;100.00
54389;BME280;40975;50.390;8.640;2023-01-10T06:47:01;99343.94;;;3.93;100.00
54389;BME280;40975;50.390;8.640;2023-01-10T06:49:27;99351.63;;;3.96;100.00
54389;BME280;40975;50.390;8.640;2023-01-10T06:51:52;99356.00;;;3.95;100.00
54389;BME280;40975;50.390;8.640;2023-01-10T06:54:17;99370.09;;;3.94;100.00
54389;BME280;40975;50.390;8.640;2023-01-10T06:56:43;99367.47;;;3.94;100.00
54389;BME280;40975;50.390;8.640;2023-01-10T06:59:08;99375.53;;;3.91;100.00
54389;BME280;40975;50.390;8.640;2023-01-10T07:01:33;99372.81;;;3.93;100.00
54389;BME280;40975;50.390;8.640;2023-01-10T07:03:59;99375.44;;;3.93;100.00
54389;BME280;40975;50.390;8.640;2023-01-10T07:06:24;99370.19;;;3.93;100.00
54389;BME280;40975;50.390;8.640;2023-01-10T07:08:49;99366.72;;;3.92;100.00
54389;BME280;40975;50.390;8.640;2023-01-10T07:11:15;99367.38;;;3.96;100.00
54389;BME280;40975;50.390;8.640;2023-01-10T07:13:41;99372.63;;;3.96;100.00
54389;BME280;40975;50.390;8.640;2023-01-10T07:16:10;99383.97;;;3.96;100.00
54389;BME280;40975;50.390;8.640;2023-01-10T07:18:37;99394.38;;;3.98;100.00
54389;BME280;40975;50.390;8.640;2023-01-10T07:21:03;99404.78;;;3.99;100.00
54389;BME280;40975;50.390;8.640;2023-01-10T07:23:29;99406.75;;;3.96;100.00
54389;BME280;40975;50.390;8.640;2023-01-10T07:25:56;99412.97;;;3.95;100.00
54389;BME280;40975;50.390;8.640;2023-01-10T07:28:21;99421.03;;;3.92;100.00
54389;BME280;40975;50.390;8.640;2023-01-10T07:30:47;99434.25;;;3.90;100.00
54389;BME280;40975;50.390;8.640;2023-01-10T07:33:13;99421.31;;;3.87;100.00
54389;BME280;40975;50.390;8.640;2023-01-10T07:35:38;99443.63;;;3.94;100.00
54389;BME280;40975;50.390;8.640;2023-01-10T07:38:04;99417.38;;;3.80;100.00
54389;BME280;40975;50.390;8.640;2023-01-10T07:40:29;99434.38;;;3.88;100.00
54389;BME280;40975;50.390;8.640;2023-01-10T07:42:58;99429.41;;;3.84;100.00
54389;BME280;40975;50.390;8.640;2023-01-10T07:45:25;99440.09;;;3.81;100.00
54389;BME280;40975;50.390;8.640;2023-01-10T07:47:57;99441.19;;;3.77;100.00
54389;BME280;40975;50.390;8.640;2023-01-10T07:50:22;99449.66;;;3.67;100.00
54389;BME280;40975;50.390;8.640;2023-01-10T07:52:47;99453.41;;;3.63;100.00
54389;BME280;40975;50.390;8.640;2023-01-10T07:55:13;99458.56;;;3.65;100.00
54389;BME280;40975;50.390;8.640;2023-01-10T07:57:38;99462.50;;;3.72;100.00
54389;BME280;40975;50.390;8.640;2023-01-10T08:00:04;99465.97;;;3.72;100.00
54389;BME280;40975;50.390;8.640;2023-01-10T08:02:30;99445.81;;;3.73;100.00
54389;BME280;40975;50.390;8.640;2023-01-10T08:04:55;99456.41;;;3.71;100.00
54389;BME280;40975;50.390;8.640;2023-01-10T08:07:20;99458.38;;;3.68;100.00
54389;BME280;40975;50.390;8.640;2023-01-10T08:09:46;99450.59;;;3.66;100.00
54389;BME280;40975;50.390;8.640;2023-01-10T08:12:11;99456.88;;;3.78;100.00
54389;BME280;40975;50.390;8.640;2023-01-10T08:14:36;99463.25;;;3.88;100.00
54389;BME280;40975;50.390;8.640;2023-01-10T08:17:02;99470.38;;;3.86;100.00
54389;BME280;40975;50.390;8.640;2023-01-10T08:19:27;99472.53;;;3.94;100.00
54389;BME280;40975;50.390;8.640;2023-01-10T08:21:53;99469.91;;;3.94;100.00
54389;BME280;40975;50.390;8.640;2023-01-10T08:24:19;99490.03;;;4.08;100.00
54389;BME280;40975;50.390;8.640;2023-01-10T08:26:44;99484.69;;;4.10;100.00
54389;BME280;40975;50.390;8.640;2023-01-10T08:29:09;99482.41;;;4.18;100.00
54389;BME280;40975;50.390;8.640;2023-01-10T08:31:35;99496.31;;;4.20;100.00
54389;BME280;40975;50.390;8.640;2023-01-10T08:34:00;99502.31;;;4.22;100.00
54389;BME280;40975;50.390;8.640;2023-01-10T08:36:25;99503.06;;;4.24;100.00
54389;BME280;40975;50.390;8.640;2023-01-10T08:38:54;99503.81;;;4.54;100.00
54389;BME280;40975;50.390;8.640;2023-01-10T08:41:20;99493.75;;;4.60;100.00
54389;BME280;40975;50.390;8.640;2023-01-10T08:43:48;99492.22;;;4.71;100.00
54389;BME280;40975;50.390;8.640;2023-01-10T08:46:14;99512.34;;;4.85;100.00
54389;BME280;40975;50.390;8.640;2023-01-10T08:48:39;99505.50;;;4.82;100.00
54389;BME280;40975;50.390;8.640;2023-01-10T08:51:07;99512.81;;;4.91;100.00
54389;BME280;40975;50.390;8.640;2023-01-10T08:53:32;99511.75;;;4.94;100.00
54389;BME280;40975;50.390;8.640;2023-01-10T08:55:57;99508.53;;;5.16;100.00
54389;BME280;40975;50.390;8.640;2023-01-10T08:58:23;99501.63;;;5.28;100.00
54389;BME280;40975;50.390;8.640;2023-01-10T09:00:48;99502.78;;;5.37;100.00
54389;BME280;40975;50.390;8.640;2023-01-10T09:03:14;99506.91;;;5.41;100.00
54389;BME280;40975;50.390;8.640;2023-01-10T09:05:39;99508.34;;;5.45;100.00
54389;BME280;40975;50.390;8.640;2023-01-10T09:08:05;99515.00;;;5.38;100.00
54389;BME280;40975;50.390;8.640;2023-01-10T09:10:30;99513.53;;;5.47;100.00
54389;BME280;40975;50.390;8.640;2023-01-10T09:12:58;99518.81;;;5.47;100.00
54389;BME280;40975;50.390;8.640;2023-01-10T09:15:34;99518.78;;;5.85;100.00
54389;BME280;40975;50.390;8.640;2023-01-10T09:18:02;99526.72;;;6.11;100.00
54389;BME280;40975;50.390;8.640;2023-01-10T09:20:29;99526.66;;;6.61;100.00
54389;BME280;40975;50.390;8.640;2023-01-10T09:22:55;99527.13;;;6.79;99.08
54389;BME280;40975;50.390;8.640;2023-01-10T09:25:21;99523.22;;;7.21;96.65
54389;BME280;40975;50.390;8.640;2023-01-10T09:27:47;99530.03;;;6.88;95.37
54389;BME280;40975;50.390;8.640;2023-01-10T09:30:13;99520.72;;;6.95;96.89
54389;BME280;40975;50.390;8.640;2023-01-10T09:32:38;99525.91;;;6.96;96.98
54389;BME280;40975;50.390;8.640;2023-01-10T09:35:04;99515.06;;;9.37;87.49
54389;BME280;40975;50.390;8.640;2023-01-10T09:37:29;99508.50;;;11.04;77.44
54389;BME280;40975;50.390;8.640;2023-01-10T09:39:57;99510.53;;;12.63;69.77
54389;BME280;40975;50.390;8.640;2023-01-10T09:42:34;99506.94;;;13.62;64.81
54389;BME280;40975;50.390;8.640;2023-01-10T09:45:37;99504.69;;;13.84;64.13
54389;BME280;40975;50.390;8.640;2023-01-10T09:48:23;99501.44;;;14.33;60.44
54389;BME280;40975;50.390;8.640;2023-01-10T09:51:13;99497.59;;;15.03;57.90
54389;BME280;40975;50.390;8.640;2023-01-10T09:53:44;99503.41;;;15.57;55.98
54389;BME280;40975;50.390;8.640;2023-01-10T09:56:13;99524.75;;;15.73;54.98
54389;BME280;40975;50.390;8.640;2023-01-10T09:58:40;99532.53;;;11.42;64.85
54389;BME280;40975;50.390;8.640;2023-01-10T10:01:09;99546.69;;;9.80;75.00
54389;BME280;40975;50.390;8.640;2023-01-10T10:04:04;99553.59;;;8.64;82.00
54389;BME280;40975;50.390;8.640;2023-01-10T10:06:34;99554.34;;;7.98;85.88
54389;BME280;40975;50.390;8.640;2023-01-10T10:09:00;99555.47;;;7.49;89.40
54389;BME280;40975;50.390;8.640;2023-01-10T10:13:58;99559.53;;;6.81;91.73
54389;BME280;40975;50.390;8.640;2023-01-10T10:28:33;99556.28;;;6.78;95.55
54389;BME280;40975;50.390;8.640;2023-01-10T10:34:11;99570.13;;;6.68;97.18
54389;BME280;40975;50.390;8.640;2023-01-10T10:36:42;99562.75;;;6.61;98.31
54389;BME280;40975;50.390;8.640;2023-01-10T10:39:14;99567.00;;;6.50;98.26
54389;BME280;40975;50.390;8.640;2023-01-10T10:41:44;99565.72;;;6.56;97.60
54389;BME280;40975;50.390;8.640;2023-01-10T10:44:40;99558.44;;;6.60;97.57
54389;BME280;40975;50.390;8.640;2023-01-10T10:47:14;99560.19;;;6.72;97.39
54389;BME280;40975;50.390;8.640;2023-01-10T10:49:49;99559.72;;;6.54;95.27
54389;BME280;40975;50.390;8.640;2023-01-10T10:52:36;99558.75;;;6.55;96.62
54389;BME280;40975;50.390;8.640;2023-01-10T10:55:04;99559.78;;;6.65;96.64
54389;BME280;40975;50.390;8.640;2023-01-10T10:57:32;99550.00;;;6.54;95.36
54389;BME280;40975;50.390;8.640;2023-01-10T11:00:01;99552.66;;;6.42;96.51
54389;BME280;40975;50.390;8.640;2023-01-10T11:02:28;99554.72;;;6.25;96.76
54389;BME280;40975;50.390;8.640;2023-01-10T11:04:57;99548.28;;;6.91;96.10
54389;BME280;40975;50.390;8.640;2023-01-10T11:07:25;99542.69;;;6.95;92.20
54389;BME280;40975;50.390;8.640;2023-01-10T11:09:52;99539.63;;;6.64;93.82
54389;BME280;40975;50.390;8.640;2023-01-10T11:12:25;99540.56;;;6.39;92.69
54389;BME280;40975;50.390;8.640;2023-01-10T11:14:52;99544.25;;;6.98;91.63
54389;BME280;40975;50.390;8.640;2023-01-10T11:17:18;99544.75;;;7.39;90.41
54389;BME280;40975;50.390;8.640;2023-01-10T11:20:04;99538.00;;;6.99;89.68
54389;BME280;40975;50.390;8.640;2023-01-10T11:22:38;99538.16;;;6.84;91.86
54389;BME280;40975;50.390;8.640;2023-01-10T11:25:13;99541.78;;;7.19;89.66
54389;BME280;40975;50.390;8.640;2023-01-10T11:27:54;99540.38;;;7.62;87.62
54389;BME280;40975;50.390;8.640;2023-01-10T11:30:22;99528.25;;;7.71;85.17
54389;BME280;40975;50.390;8.640;2023-01-10T11:32:54;99541.69;;;7.56;85.91
54389;BME280;40975;50.390;8.640;2023-01-10T11:35:26;99538.47;;;7.98;84.26
54389;BME280;40975;50.390;8.640;2023-01-10T11:40:53;99540.25;;;7.63;84.63
54389;BME280;40975;50.390;8.640;2023-01-10T11:43:25;99532.56;;;7.72;86.80
54389;BME280;40975;50.390;8.640;2023-01-10T11:46:18;99533.50;;;7.48;86.25
54389;BME280;40975;50.390;8.640;2023-01-10T11:48:51;99533.38;;;7.50;88.09
54389;BME280;40975;50.390;8.640;2023-01-10T11:51:22;99541.03;;;7.06;85.99
54389;BME280;40975;50.390;8.640;2023-01-10T11:54:00;99541.34;;;6.90;87.77
54389;BME280;40975;50.390;8.640;2023-01-10T11:56:37;99545.03;;;7.11;88.36
54389;BME280;40975;50.390;8.640;2023-01-10T11:59:13;99532.78;;;7.10;88.89
54389;BME280;40975;50.390;8.640;2023-01-10T12:02:01;99531.00;;;7.58;86.68
54389;BME280;40975;50.390;8.640;2023-01-10T12:04:31;99498.03;;;7.28;86.00
54389;BME280;40975;50.390;8.640;2023-01-10T12:07:02;99518.81;;;7.32;88.03
54389;BME280;40975;50.390;8.640;2023-01-10T12:09:58;99502.91;;;7.68;87.05
54389;BME280;40975;50.390;8.640;2023-01-10T12:12:29;99516.13;;;7.68;85.08
54389;BME280;40975;50.390;8.640;2023-01-10T12:14:57;99506.41;;;7.91;86.59
54389;BME280;40975;50.390;8.640;2023-01-10T12:17:28;99506.53;;;8.13;83.32
54389;BME280;40975;50.390;8.640;2023-01-10T12:19:55;99502.56;;;7.96;83.00
54389;BME280;40975;50.390;8.640;2023-01-10T12:22:31;99504.47;;;7.93;82.91
54389;BME280;40975;50.390;8.640;2023-01-10T12:24:59;99496.91;;;7.66;83.21
54389;BME280;40975;50.390;8.640;2023-01-10T12:27:28;99503.81;;;7.33;83.46
54389;BME280;40975;50.390;8.640;2023-01-10T12:30:01;99500.56;;;6.94;85.36
54389;BME280;40975;50.390;8.640;2023-01-10T12:32:55;99513.38;;;6.87;85.23
54389;BME280;40975;50.390;8.640;2023-01-10T12:35:31;99502.91;;;6.85;85.32
54389;BME280;40975;50.390;8.640;2023-01-10T12:41:07;99512.78;;;6.83;87.61
54389;BME280;40975;50.390;8.640;2023-01-10T12:43:39;99509.94;;;6.98;87.36
54389;BME280;40975;50.390;8.640;2023-01-10T12:46:32;99511.09;;;6.82;87.62
54389;BME280;40975;50.390;8.640;2023-01-10T12:49:06;99506.75;;;6.81;86.80
54389;BME280;40975;50.390;8.640;2023-01-10T12:51:37;99514.75;;;6.80;87.51
54389;BME280;40975;50.390;8.640;2023-01-10T12:54:05;99523.75;;;6.77;87.71
54389;BME280;40975;50.390;8.640;2023-01-10T12:56:36;99519.34;;;6.78;89.96
54389;BME280;40975;50.390;8.640;2023-01-10T13:01:53;99512.47;;;6.75;88.45
54389;BME280;40975;50.390;8.640;2023-01-10T13:04:21;99506.97;;;6.78;87.90
54389;BME280;40975;50.390;8.640;2023-01-10T13:06:48;99504.69;;;6.74;88.35
54389;BME280;40975;50.390;8.640;2023-01-10T13:09:23;99516.13;;;6.85;88.50
54389;BME280;40975;50.390;8.640;2023-01-10T13:12:11;99520.63;;;6.72;88.11
54389;BME280;40975;50.390;8.640;2023-01-10T13:14:47;99508.38;;;6.71;88.44
54389;BME280;40975;50.390;8.640;2023-01-10T13:17:25;99517.59;;;6.65;87.88
54389;BME280;40975;50.390;8.640;2023-01-10T13:20:18;99515.34;;;6.72;88.89
54389;BME280;40975;50.390;8.640;2023-01-10T13:22:51;99526.28;;;6.79;89.23
54389;BME280;40975;50.390;8.640;2023-01-10T13:25:35;99516.97;;;6.62;89.19
54389;BME280;40975;50.390;8.640;2023-01-10T13:28:17;99528.91;;;6.54;88.07
54389;BME280;40975;50.390;8.640;2023-01-10T13:30:43;99519.88;;;6.46;88.79
54389;BME280;40975;50.390;8.640;2023-01-10T13:33:26;99515.88;;;6.40;89.24
54389;BME280;40975;50.390;8.640;2023-01-10T13:35:56;99516.28;;;6.47;90.49
54389;BME280;40975;50.390;8.640;2023-01-10T13:38:46;99511.09;;;6.45;90.74
54389;BME280;40975;50.390;8.640;2023-01-10T13:41:13;99506.09;;;6.29;91.15
54389;BME280;40975;50.390;8.640;2023-01-10T13:51:26;99516.00;;;6.26;95.04
54389;BME280;40975;50.390;8.640;2023-01-10T13:54:00;99506.97;;;6.17;95.48
54389;BME280;40975;50.390;8.640;2023-01-10T13:56:35;99506.25;;;6.15;95.23
54389;BME280;40975;50.390;8.640;2023-01-10T13:59:04;99510.28;;;6.07;96.52
54389;BME280;40975;50.390;8.640;2023-01-10T14:01:42;99505.72;;;5.97;97.49
54389;BME280;40975;50.390;8.640;2023-01-10T14:04:29;99499.69;;;5.95;98.27
54389;BME280;40975;50.390;8.640;2023-01-10T14:07:01;99497.94;;;5.95;98.91
54389;BME280;40975;50.390;8.640;2023-01-10T14:09:34;99492.78;;;5.94;99.67
54389;BME280;40975;50.390;8.640;2023-01-10T14:12:04;99493.94;;;5.89;99.73